Terminal Aerodrome Forecast
Issued by NWS Houston/Galveston, TX

Home | Current Version | Previous Version | Text Only | Print | Product List | Glossary On
Versions: 1 2 3 4 5 6 7 8 9 10 11 12 13 14 15 16 17 18 19 20 21 22 23 24 25 26 27 28 29 30 31 32 33 34 35 36 37 38 39 40 41 42 43 44 45 46 47 48 49 50
000
FTUS44 KHGX 232332
TAFGLS
TAF
KGLS 232332Z 2400/2424 15008KT P6SM FEW050
     FM240100 VRB06KT P6SM VCTS SCT035 BKN050CB
      TEMPO 2401/2404 VRB35KT 3SM TSRA BR BKN035CB
     FM240500 34013KT P6SM VCSH BKN050
     FM240700 34016KT P6SM SCT250
     FM241500 31015G25KT P6SM SKC=

USA.gov is the U.S. government's official web portal to all federal, state and local government web resources and services.